createdAt,value
2024-05-09T00:02:14.696Z,17.85
2024-05-09T00:04:45.916Z,17.75
2024-05-09T00:07:23.466Z,17.68
2024-05-09T00:09:57.379Z,17.60
2024-05-09T00:12:29.338Z,17.55
2024-05-09T00:15:02.471Z,17.49
2024-05-09T00:17:34.515Z,17.47
2024-05-09T00:20:11.065Z,17.48
2024-05-09T00:22:45.703Z,17.43
2024-05-09T00:25:19.502Z,17.42
2024-05-09T00:27:51.272Z,17.40
2024-05-09T00:30:31.481Z,17.35
2024-05-09T00:33:10.820Z,17.27
2024-05-09T00:35:43.442Z,17.25
2024-05-09T00:38:13.550Z,17.22
2024-05-09T00:40:48.649Z,17.13
2024-05-09T00:43:20.340Z,17.13
2024-05-09T00:45:56.163Z,17.09
2024-05-09T00:48:27.683Z,17.06
2024-05-09T00:51:01.588Z,17.03
2024-05-09T00:53:35.293Z,16.98
2024-05-09T00:56:11.047Z,16.95
2024-05-09T00:58:42.816Z,16.91
2024-05-09T01:01:14.748Z,16.89
2024-05-09T01:03:48.757Z,16.85
2024-05-09T01:06:22.599Z,16.82
2024-05-09T01:08:52.470Z,16.78
2024-05-09T01:11:26.253Z,16.77
2024-05-09T01:13:59.080Z,16.77
2024-05-09T01:16:31.297Z,16.74
2024-05-09T01:19:01.794Z,16.73
2024-05-09T01:21:35.225Z,16.69
2024-05-09T01:24:11.896Z,16.67
2024-05-09T01:26:44.936Z,16.68
2024-05-09T01:29:16.009Z,16.64
2024-05-09T01:31:46.575Z,16.64
2024-05-09T01:34:19.408Z,16.59
2024-05-09T01:36:50.606Z,16.50
2024-05-09T01:39:25.931Z,16.45
2024-05-09T01:41:56.695Z,16.44
2024-05-09T01:44:27.455Z,16.42
2024-05-09T01:47:00.736Z,16.37
2024-05-09T01:49:31.648Z,16.32
2024-05-09T01:52:03.290Z,16.29
2024-05-09T01:54:37.598Z,16.22
2024-05-09T01:57:14.009Z,16.20
2024-05-09T01:59:47.451Z,16.17
2024-05-09T02:02:25.168Z,16.15
2024-05-09T02:04:57.966Z,16.10
2024-05-09T02:07:31.989Z,16.08
2024-05-09T02:10:13.566Z,16.04
2024-05-09T02:12:49.584Z,16.05
2024-05-09T02:15:19.983Z,16.00
2024-05-09T02:17:51.877Z,15.99
2024-05-09T02:20:36.230Z,15.94
2024-05-09T02:23:21.549Z,15.91
2024-05-09T02:25:54.896Z,15.88
2024-05-09T02:28:27.913Z,15.86
2024-05-09T02:30:58.466Z,15.84
2024-05-09T02:33:36.196Z,15.79
2024-05-09T02:36:15.960Z,15.76
2024-05-09T02:38:45.523Z,15.76
2024-05-09T02:41:23.540Z,15.75
2024-05-09T02:43:53.583Z,15.69
2024-05-09T02:46:24.674Z,15.63
2024-05-09T02:48:52.158Z,15.61
2024-05-09T02:51:24.851Z,15.60
2024-05-09T02:53:53.151Z,15.57
2024-05-09T02:56:31.764Z,15.52
2024-05-09T02:59:02.271Z,15.50
2024-05-09T03:01:35.694Z,15.50
2024-05-09T03:04:11.310Z,15.60
2024-05-09T03:06:48.783Z,15.63
2024-05-09T03:09:19.871Z,15.67
2024-05-09T03:11:53.887Z,15.65
2024-05-09T03:14:24.488Z,15.64
2024-05-09T03:16:57.278Z,15.61
2024-05-09T03:19:29.892Z,15.57
2024-05-09T03:22:02.364Z,15.55
2024-05-09T03:24:30.893Z,15.51
2024-05-09T03:27:03.663Z,15.46
2024-05-09T03:29:34.465Z,15.31
2024-05-09T03:32:10.089Z,15.46
2024-05-09T03:34:41.296Z,15.47
2024-05-09T03:37:15.389Z,15.47
2024-05-09T03:39:47.445Z,15.45
2024-05-09T03:42:20.345Z,15.49
2024-05-09T03:44:52.645Z,15.51
2024-05-09T03:47:22.468Z,15.57
2024-05-09T03:49:55.469Z,15.58
2024-05-09T03:52:23.287Z,15.64
2024-05-09T03:54:55.015Z,15.69
2024-05-09T03:57:27.096Z,15.69
2024-05-09T04:00:05.436Z,15.71
2024-05-09T04:02:47.097Z,15.73
2024-05-09T04:05:20.118Z,15.70
2024-05-09T04:07:57.913Z,15.71
2024-05-09T04:10:34.394Z,15.69
2024-05-09T04:13:10.233Z,15.65
2024-05-09T04:15:40.554Z,15.71
2024-05-09T04:18:09.696Z,15.68
2024-05-09T04:20:41.540Z,15.66
2024-05-09T04:23:13.688Z,15.63
2024-05-09T04:25:48.592Z,15.64
2024-05-09T04:28:23.947Z,15.65
2024-05-09T04:31:05.669Z,15.67
2024-05-09T04:33:34.755Z,15.64
2024-05-09T04:36:08.390Z,15.67
2024-05-09T04:38:47.124Z,15.63
2024-05-09T04:41:23.292Z,15.62
2024-05-09T04:44:08.607Z,15.63
2024-05-09T04:46:41.538Z,15.63
2024-05-09T04:49:09.737Z,15.67
2024-05-09T04:51:41.474Z,15.69
2024-05-09T04:54:22.105Z,15.75
2024-05-09T04:57:00.685Z,15.86
2024-05-09T04:59:34.282Z,15.93
2024-05-09T05:02:06.604Z,16.06
2024-05-09T05:04:34.164Z,16.12
2024-05-09T05:07:06.943Z,16.17
2024-05-09T05:09:35.057Z,16.24
2024-05-09T05:12:26.165Z,16.28
2024-05-09T05:14:57.498Z,16.37
2024-05-09T05:17:30.849Z,16.43
2024-05-09T05:19:59.008Z,16.53
2024-05-09T05:22:31.882Z,16.55
2024-05-09T05:25:05.219Z,16.56
2024-05-09T05:27:41.782Z,16.61
2024-05-09T05:30:21.508Z,16.67
2024-05-09T05:32:59.403Z,16.74
2024-05-09T05:35:28.147Z,16.77
2024-05-09T05:37:58.944Z,16.75
2024-05-09T05:40:36.221Z,16.80
2024-05-09T05:43:13.997Z,16.81
2024-05-09T05:45:46.031Z,16.83
2024-05-09T05:48:29.434Z,16.82
2024-05-09T05:51:00.402Z,16.87
2024-05-09T05:53:35.010Z,16.91
2024-05-09T05:56:04.655Z,16.98
2024-05-09T05:58:37.588Z,17.03
2024-05-09T06:01:10.695Z,17.08
2024-05-09T06:03:42.906Z,17.18
2024-05-09T06:06:13.373Z,17.24
2024-05-09T06:08:45.886Z,17.22
2024-05-09T06:11:20.276Z,17.22
2024-05-09T06:13:51.564Z,17.23
2024-05-09T06:16:23.178Z,17.23
2024-05-09T06:18:57.584Z,17.23
2024-05-09T06:21:30.736Z,17.22
2024-05-09T06:24:05.328Z,17.24
2024-05-09T06:26:36.335Z,17.24
2024-05-09T06:29:06.970Z,17.28
2024-05-09T06:31:41.327Z,17.29
2024-05-09T06:34:14.771Z,17.33
2024-05-09T06:36:46.579Z,17.35
2024-05-09T06:39:20.560Z,17.38
2024-05-09T06:41:49.200Z,17.43
2024-05-09T06:44:21.454Z,17.48
2024-05-09T06:46:53.332Z,17.54
2024-05-09T06:49:30.241Z,17.65
2024-05-09T06:52:04.687Z,17.71
2024-05-09T06:54:33.455Z,17.76
2024-05-09T06:57:06.504Z,17.81
2024-05-09T06:59:34.334Z,17.84
2024-05-09T07:02:09.495Z,17.82
2024-05-09T07:04:38.082Z,17.80
2024-05-09T07:07:10.023Z,17.83
2024-05-09T07:09:50.075Z,17.90
2024-05-09T07:12:20.604Z,17.98
2024-05-09T07:14:51.141Z,18.04
2024-05-09T07:17:32.424Z,18.07
2024-05-09T07:20:02.013Z,18.14
2024-05-09T07:22:33.760Z,18.24
2024-05-09T07:25:06.202Z,18.28
2024-05-09T07:27:43.003Z,18.35
2024-05-09T07:30:22.942Z,18.49
2024-05-09T07:33:02.578Z,18.60
2024-05-09T07:35:50.095Z,18.73
2024-05-09T07:38:28.357Z,18.78
2024-05-09T07:40:57.722Z,18.85
2024-05-09T07:43:39.628Z,18.90
2024-05-09T07:50:35.885Z,18.99
2024-05-09T07:53:21.805Z,19.10
2024-05-09T07:54:46.029Z,19.24
2024-05-09T07:57:20.273Z,19.29
2024-05-09T08:00:06.696Z,19.35
2024-05-09T08:02:40.140Z,19.38
2024-05-09T08:05:17.580Z,19.35
2024-05-09T08:07:56.855Z,19.31
2024-05-09T08:13:12.996Z,19.40
2024-05-09T08:15:42.695Z,19.49
2024-05-09T08:18:14.285Z,19.58
2024-05-09T08:20:50.800Z,19.68
2024-05-09T08:23:20.684Z,19.73
2024-05-09T08:25:48.165Z,19.79
2024-05-09T08:28:21.147Z,19.88
2024-05-09T08:30:49.929Z,20.02
2024-05-09T08:33:22.625Z,20.12
2024-05-09T08:35:55.521Z,20.20
2024-05-09T08:38:30.933Z,20.35
2024-05-09T08:40:59.629Z,20.52
2024-05-09T08:43:30.436Z,20.59
2024-05-09T08:45:58.151Z,20.62
2024-05-09T08:48:29.211Z,20.72
2024-05-09T08:51:05.403Z,20.79
2024-05-09T08:53:37.414Z,20.88
2024-05-09T08:58:56.395Z,21.10
2024-05-09T09:01:24.081Z,21.23
2024-05-09T09:03:54.300Z,21.26
2024-05-09T09:06:24.650Z,21.29
2024-05-09T09:08:55.102Z,21.31
2024-05-09T09:11:23.757Z,21.38
2024-05-09T09:14:31.085Z,21.39
2024-05-09T09:17:02.703Z,21.46
2024-05-09T09:19:38.731Z,21.56
2024-05-09T09:22:17.173Z,21.73
2024-05-09T09:24:52.030Z,21.89
2024-05-09T09:27:31.661Z,22.01
2024-05-09T09:30:27.286Z,22.20
2024-05-09T09:33:03.266Z,22.28
2024-05-09T09:35:45.229Z,22.42
2024-05-09T09:38:20.337Z,22.61
2024-05-09T09:40:55.562Z,22.79
2024-05-09T09:43:28.809Z,22.90
2024-05-09T09:46:02.556Z,22.95
2024-05-09T09:48:47.113Z,23.07
2024-05-09T09:54:13.365Z,23.40
2024-05-09T09:56:45.336Z,23.62
2024-05-09T09:59:17.793Z,23.85
2024-05-09T10:01:58.371Z,24.03
2024-05-09T10:04:28.931Z,24.10
2024-05-09T10:07:09.294Z,24.24
2024-05-09T10:09:41.057Z,24.40
2024-05-09T10:12:56.339Z,24.61
2024-05-09T10:15:26.222Z,24.81
2024-05-09T10:17:59.677Z,24.94
2024-05-09T10:20:43.563Z,25.09
2024-05-09T10:23:29.288Z,25.11
2024-05-09T10:26:01.419Z,24.94
2024-05-09T10:28:37.966Z,24.86
2024-05-09T10:31:24.372Z,24.94
2024-05-09T10:34:06.952Z,24.95
2024-05-09T10:36:34.514Z,25.06
2024-05-09T10:39:07.699Z,25.04
2024-05-09T10:41:42.055Z,25.06
2024-05-09T10:44:20.206Z,25.24
2024-05-09T10:47:00.109Z,25.28
2024-05-09T10:49:34.531Z,25.29
2024-05-09T10:52:10.556Z,25.35
2024-05-09T10:57:29.630Z,25.78
2024-05-09T11:00:15.803Z,25.84
2024-05-09T11:02:53.002Z,25.85
2024-05-09T11:05:36.778Z,25.92
2024-05-09T11:08:14.485Z,26.10
2024-05-09T11:10:47.087Z,26.43
2024-05-09T11:13:43.686Z,26.68
2024-05-09T11:16:20.708Z,26.72
2024-05-09T11:18:58.267Z,26.96
2024-05-09T11:21:27.179Z,27.16
2024-05-09T11:23:57.169Z,27.18
2024-05-09T11:26:28.205Z,27.28
2024-05-09T11:29:00.844Z,27.41
2024-05-09T11:31:29.123Z,27.41
2024-05-09T11:33:59.212Z,27.43
2024-05-09T11:36:28.015Z,27.67
2024-05-09T11:38:59.182Z,27.95
2024-05-09T11:41:31.586Z,28.19
2024-05-09T11:44:06.258Z,28.42
2024-05-09T11:46:34.119Z,28.58
2024-05-09T11:49:06.414Z,28.70
2024-05-09T11:51:35.948Z,28.82
2024-05-09T11:54:17.013Z,29.11
2024-05-09T11:56:58.009Z,29.38
2024-05-09T11:59:34.512Z,29.46
2024-05-09T12:02:03.834Z,29.62
2024-05-09T12:05:02.453Z,29.62
2024-05-09T12:07:33.999Z,29.70
2024-05-09T12:10:22.284Z,29.72
2024-05-09T12:13:03.123Z,30.03
2024-05-09T12:15:45.744Z,30.00
2024-05-09T12:18:18.417Z,29.89
2024-05-09T12:20:52.583Z,29.75
2024-05-09T12:23:43.343Z,29.62
2024-05-09T12:26:15.912Z,29.53
2024-05-09T12:28:48.506Z,29.79
2024-05-09T12:31:46.388Z,29.95
2024-05-09T12:34:22.107Z,30.01
2024-05-09T12:36:53.158Z,30.16
2024-05-09T12:39:22.377Z,30.47
2024-05-09T12:42:00.836Z,30.51
2024-05-09T12:44:34.873Z,30.50
2024-05-09T12:47:09.671Z,30.31
2024-05-09T12:49:46.011Z,30.39
2024-05-09T12:52:25.210Z,30.42
2024-05-09T12:54:59.442Z,30.55
2024-05-09T12:57:44.040Z,30.44
2024-05-09T13:00:27.974Z,30.26
2024-05-09T13:03:13.051Z,30.27
2024-05-09T13:05:51.726Z,30.27
2024-05-09T13:08:28.285Z,30.22
2024-05-09T13:10:57.023Z,30.12
2024-05-09T13:13:30.724Z,30.38
2024-05-09T13:16:00.510Z,30.71
2024-05-09T13:18:46.039Z,31.06
2024-05-09T13:21:34.611Z,31.10
2024-05-09T13:24:28.860Z,31.11
2024-05-09T13:27:09.483Z,31.52
2024-05-09T13:29:44.469Z,31.88
2024-05-09T13:32:12.742Z,32.11
2024-05-09T13:34:51.783Z,32.33
2024-05-09T13:37:28.606Z,32.66
2024-05-09T13:40:12.028Z,33.09
2024-05-09T13:42:43.494Z,33.51
2024-05-09T13:45:19.344Z,33.66
2024-05-09T13:47:50.072Z,33.74
2024-05-09T13:50:35.103Z,33.88
2024-05-09T13:53:10.996Z,34.03
2024-05-09T13:55:43.353Z,34.07
2024-05-09T13:58:21.176Z,33.97
2024-05-09T14:00:52.894Z,33.77
2024-05-09T14:03:30.234Z,33.63
2024-05-09T14:06:16.201Z,33.61
2024-05-09T14:08:46.540Z,33.62
2024-05-09T14:11:27.856Z,33.61
2024-05-09T14:13:59.889Z,33.64
2024-05-09T14:16:42.225Z,33.56
2024-05-09T14:19:10.625Z,33.49
2024-05-09T14:21:50.599Z,33.39
2024-05-09T14:24:23.156Z,33.31
2024-05-09T14:26:54.699Z,33.32
2024-05-09T14:29:26.031Z,33.46
2024-05-09T14:31:59.600Z,33.43
2024-05-09T14:34:32.634Z,33.35
2024-05-09T14:37:29.004Z,33.44
2024-05-09T14:39:58.175Z,33.51
2024-05-09T14:42:34.210Z,33.54
2024-05-09T14:45:12.986Z,33.54
2024-05-09T14:47:48.687Z,33.58
2024-05-09T14:53:13.870Z,33.65
2024-05-09T14:55:51.074Z,33.94
2024-05-09T14:58:31.943Z,34.14
2024-05-09T15:01:09.025Z,34.18
2024-05-09T15:03:44.531Z,34.18
2024-05-09T15:06:18.005Z,34.21
2024-05-09T15:08:57.160Z,34.34
2024-05-09T15:11:41.317Z,34.45
2024-05-09T15:14:16.304Z,34.68
2024-05-09T15:16:48.914Z,34.91
2024-05-09T15:22:08.241Z,35.11
2024-05-09T15:30:30.358Z,35.33
2024-05-09T15:33:12.096Z,35.54
2024-05-09T15:35:47.059Z,35.58
2024-05-09T15:38:18.843Z,35.68
2024-05-09T15:40:52.886Z,35.87
2024-05-09T15:43:42.141Z,35.83
2024-05-09T15:46:22.711Z,35.88
2024-05-09T15:48:59.368Z,35.85
2024-05-09T15:51:37.969Z,35.63
2024-05-09T15:54:27.230Z,35.45
2024-05-09T15:57:13.491Z,35.37
2024-05-09T15:59:45.017Z,35.21
2024-05-09T16:02:45.817Z,35.10
2024-05-09T16:05:14.584Z,35.06
2024-05-09T16:07:45.599Z,35.06
2024-05-09T16:10:20.250Z,35.15
2024-05-09T16:12:58.232Z,35.26
2024-05-09T16:15:29.154Z,35.35
2024-05-09T16:18:00.331Z,35.58
2024-05-09T16:20:37.885Z,35.85
2024-05-09T16:23:14.145Z,36.14
2024-05-09T16:25:55.958Z,36.17
2024-05-09T16:28:38.026Z,36.16
2024-05-09T16:31:06.744Z,36.14
2024-05-09T16:33:41.457Z,36.08
2024-05-09T16:36:13.614Z,35.95
2024-05-09T16:38:47.317Z,35.91
2024-05-09T16:41:15.626Z,35.81
2024-05-09T16:43:56.456Z,35.73
2024-05-09T16:46:28.963Z,35.53
2024-05-09T16:49:00.876Z,35.27
2024-05-09T16:51:29.997Z,35.09
2024-05-09T16:54:10.351Z,34.93
2024-05-09T16:56:55.768Z,34.83
2024-05-09T17:00:25.542Z,34.72
2024-05-09T17:03:11.200Z,34.65
2024-05-09T17:05:45.951Z,34.55
2024-05-09T17:08:27.356Z,34.41
2024-05-09T17:11:05.109Z,34.19
2024-05-09T17:13:51.109Z,34.00
2024-05-09T17:16:24.869Z,33.67
2024-05-09T17:19:07.664Z,33.17
2024-05-09T17:21:54.129Z,33.00
2024-05-09T17:24:30.188Z,32.84
2024-05-09T17:27:16.805Z,32.60
2024-05-09T17:29:52.334Z,32.39
2024-05-09T17:32:25.660Z,32.22
2024-05-09T17:35:08.655Z,31.93
2024-05-09T17:37:39.786Z,31.68
2024-05-09T17:43:03.090Z,31.62
2024-05-09T17:45:34.286Z,31.55
2024-05-09T17:48:03.244Z,31.34
2024-05-09T17:50:38.115Z,31.21
2024-05-09T17:53:08.443Z,31.01
2024-05-09T17:55:45.501Z,30.79
2024-05-09T17:58:13.497Z,30.52
2024-05-09T18:00:47.804Z,30.32
2024-05-09T18:03:17.378Z,30.12
2024-05-09T18:06:03.260Z,30.01
2024-05-09T18:08:32.384Z,29.95
2024-05-09T18:11:08.180Z,29.87
2024-05-09T18:13:37.173Z,29.83
2024-05-09T18:16:07.560Z,29.67
2024-05-09T18:18:36.103Z,29.48
2024-05-09T18:21:09.224Z,29.10
2024-05-09T18:23:41.948Z,28.81
2024-05-09T18:26:14.762Z,28.59
2024-05-09T18:28:47.247Z,28.33
2024-05-09T18:31:23.064Z,28.09
2024-05-09T18:33:55.615Z,27.80
2024-05-09T18:36:39.076Z,27.58
2024-05-09T18:39:14.998Z,27.37
2024-05-09T18:41:51.677Z,27.18
2024-05-09T18:44:24.153Z,26.97
2024-05-09T18:46:56.385Z,26.83
2024-05-09T18:49:24.889Z,26.65
2024-05-09T18:51:58.149Z,26.31
2024-05-09T18:57:22.242Z,25.50
2024-05-09T18:59:57.411Z,25.05
2024-05-09T19:02:32.241Z,24.58
2024-05-09T19:04:59.961Z,24.21
2024-05-09T19:07:46.650Z,24.00
2024-05-09T19:10:28.676Z,23.83
2024-05-09T19:13:08.862Z,23.61
2024-05-09T19:15:47.862Z,23.45
2024-05-09T19:18:17.294Z,23.37
2024-05-09T19:20:52.843Z,23.27
2024-05-09T19:23:23.921Z,23.20
2024-05-09T19:26:15.895Z,23.19
2024-05-09T19:28:51.271Z,23.16
2024-05-09T19:31:27.296Z,23.09
2024-05-09T19:34:01.433Z,22.98
2024-05-09T19:36:35.575Z,22.90
2024-05-09T19:39:18.216Z,22.82
2024-05-09T19:41:57.616Z,22.77
2024-05-09T19:44:27.153Z,22.74
2024-05-09T19:47:05.874Z,22.66
2024-05-09T19:49:36.705Z,22.58
2024-05-09T19:52:08.427Z,22.51
2024-05-09T19:54:38.952Z,22.43
2024-05-09T19:57:09.986Z,22.38
2024-05-09T19:59:38.307Z,22.34
2024-05-09T20:02:10.464Z,22.32
2024-05-09T20:04:45.914Z,22.28
2024-05-09T20:07:28.459Z,22.27
2024-05-09T20:10:08.014Z,22.23
2024-05-09T20:12:39.475Z,22.24
2024-05-09T20:15:13.800Z,22.22
2024-05-09T20:17:43.866Z,22.19
2024-05-09T20:20:28.223Z,22.15
2024-05-09T20:26:09.836Z,22.01
2024-05-09T20:28:40.924Z,21.88
2024-05-09T20:31:14.382Z,21.78
2024-05-09T20:33:51.421Z,21.68
2024-05-09T20:36:32.139Z,21.59
2024-05-09T20:39:00.869Z,21.53
2024-05-09T20:41:39.580Z,21.47
2024-05-09T20:44:11.012Z,21.42
2024-05-09T20:46:41.292Z,21.43
2024-05-09T20:49:08.909Z,21.41
2024-05-09T20:51:40.164Z,21.35
2024-05-09T20:54:08.091Z,21.37
2024-05-09T20:56:41.947Z,21.38
2024-05-09T20:59:10.598Z,21.38
2024-05-09T21:01:48.060Z,21.34
2024-05-09T21:04:20.617Z,21.33
2024-05-09T21:07:01.327Z,21.32
2024-05-09T21:09:38.936Z,21.29
2024-05-09T21:12:15.983Z,21.26
2024-05-09T21:14:50.860Z,21.23
2024-05-09T21:17:25.200Z,21.21
2024-05-09T21:19:56.637Z,21.15
2024-05-09T21:22:41.382Z,21.05
2024-05-09T21:25:10.828Z,21.00
2024-05-09T21:27:46.406Z,20.93
2024-05-09T21:32:59.418Z,20.89
2024-05-09T21:35:28.903Z,20.86
2024-05-09T21:38:06.412Z,20.80
2024-05-09T21:40:47.325Z,20.84
2024-05-09T21:43:45.147Z,20.82
2024-05-09T21:46:18.660Z,20.72
2024-05-09T21:48:50.408Z,20.74
2024-05-09T21:51:18.361Z,20.67
2024-05-09T21:53:49.516Z,20.64
2024-05-09T21:56:17.222Z,20.59
2024-05-09T21:58:49.814Z,20.55
2024-05-09T22:01:17.316Z,20.50
2024-05-09T22:03:47.573Z,20.50
2024-05-09T22:06:17.483Z,20.47
2024-05-09T22:08:47.996Z,20.44
2024-05-09T22:11:15.380Z,20.38
2024-05-09T22:13:45.369Z,20.34
2024-05-09T22:16:15.260Z,20.25
2024-05-09T22:18:45.716Z,20.23
2024-05-09T22:21:13.729Z,20.26
2024-05-09T22:26:52.479Z,20.19
2024-05-09T22:29:20.093Z,20.13
2024-05-09T22:31:57.472Z,20.08
2024-05-09T22:34:34.039Z,20.03
2024-05-09T22:37:06.370Z,19.98
2024-05-09T22:39:41.344Z,19.95
2024-05-09T22:42:27.759Z,19.95
2024-05-09T22:45:00.679Z,19.89
2024-05-09T22:47:38.517Z,19.87
2024-05-09T22:53:12.282Z,19.88
2024-05-09T22:56:18.291Z,19.87
2024-05-09T22:58:50.015Z,19.78
2024-05-09T23:01:24.964Z,19.72
2024-05-09T23:03:58.340Z,19.68
2024-05-09T23:06:31.021Z,19.61
2024-05-09T23:09:01.552Z,19.56
2024-05-09T23:11:36.220Z,19.55
2024-05-09T23:14:04.491Z,19.54
2024-05-09T23:16:35.989Z,19.54
2024-05-09T23:19:28.996Z,19.55
2024-05-09T23:22:06.614Z,19.54
2024-05-09T23:24:38.740Z,19.49
2024-05-09T23:27:09.639Z,19.43
2024-05-09T23:29:51.632Z,19.43
2024-05-09T23:32:27.888Z,19.49
2024-05-09T23:35:00.886Z,19.53
2024-05-09T23:37:37.528Z,19.47
2024-05-09T23:40:18.102Z,19.38
2024-05-09T23:45:41.336Z,19.33
2024-05-09T23:48:10.739Z,19.31
2024-05-09T23:50:57.560Z,19.31
2024-05-09T23:53:28.807Z,19.28
2024-05-09T23:56:08.116Z,19.25
2024-05-09T23:58:40.072Z,19.23
